sensor_id;sensor_type;location;lat;lon;timestamp;P1;durP1;ratioP1;P2;durP2;ratioP2
11990;SDS011;6055;52.522;13.446;2022-07-29T00:02:21;3.28;;;2.20;;
11990;SDS011;6055;52.522;13.446;2022-07-29T00:04:47;5.18;;;2.35;;
11990;SDS011;6055;52.522;13.446;2022-07-29T00:07:12;3.25;;;2.35;;
11990;SDS011;6055;52.522;13.446;2022-07-29T00:09:38;6.35;;;2.63;;
11990;SDS011;6055;52.522;13.446;2022-07-29T00:12:03;4.20;;;2.45;;
11990;SDS011;6055;52.522;13.446;2022-07-29T00:14:29;4.00;;;2.55;;
11990;SDS011;6055;52.522;13.446;2022-07-29T00:16:54;4.15;;;2.40;;
11990;SDS011;6055;52.522;13.446;2022-07-29T00:19:20;5.03;;;2.35;;
11990;SDS011;6055;52.522;13.446;2022-07-29T00:21:46;5.85;;;2.95;;
11990;SDS011;6055;52.522;13.446;2022-07-29T00:24:12;3.30;;;2.45;;
11990;SDS011;6055;52.522;13.446;2022-07-29T00:26:38;3.75;;;2.70;;
11990;SDS011;6055;52.522;13.446;2022-07-29T00:29:03;3.15;;;2.17;;
11990;SDS011;6055;52.522;13.446;2022-07-29T00:31:29;5.22;;;2.60;;
11990;SDS011;6055;52.522;13.446;2022-07-29T00:33:55;4.82;;;2.25;;
11990;SDS011;6055;52.522;13.446;2022-07-29T00:36:21;4.00;;;2.65;;
11990;SDS011;6055;52.522;13.446;2022-07-29T00:38:50;3.20;;;2.50;;
11990;SDS011;6055;52.522;13.446;2022-07-29T00:41:16;5.00;;;2.70;;
11990;SDS011;6055;52.522;13.446;2022-07-29T00:43:43;3.88;;;2.78;;
11990;SDS011;6055;52.522;13.446;2022-07-29T00:46:09;3.42;;;2.90;;
11990;SDS011;6055;52.522;13.446;2022-07-29T00:48:35;8.00;;;2.90;;
11990;SDS011;6055;52.522;13.446;2022-07-29T00:51:01;5.53;;;3.47;;
11990;SDS011;6055;52.522;13.446;2022-07-29T00:53:27;4.88;;;3.17;;
11990;SDS011;6055;52.522;13.446;2022-07-29T00:55:54;6.22;;;2.90;;
11990;SDS011;6055;52.522;13.446;2022-07-29T00:58:20;4.07;;;2.60;;
11990;SDS011;6055;52.522;13.446;2022-07-29T01:00:46;4.68;;;2.83;;
11990;SDS011;6055;52.522;13.446;2022-07-29T01:03:12;2.92;;;2.28;;
11990;SDS011;6055;52.522;13.446;2022-07-29T01:05:37;3.28;;;2.55;;
11990;SDS011;6055;52.522;13.446;2022-07-29T01:08:06;4.32;;;2.65;;
11990;SDS011;6055;52.522;13.446;2022-07-29T01:10:32;5.03;;;2.50;;
11990;SDS011;6055;52.522;13.446;2022-07-29T01:13:00;3.45;;;2.55;;
11990;SDS011;6055;52.522;13.446;2022-07-29T01:15:26;4.90;;;2.60;;
11990;SDS011;6055;52.522;13.446;2022-07-29T01:18:12;4.57;;;2.70;;
11990;SDS011;6055;52.522;13.446;2022-07-29T01:20:50;3.28;;;2.15;;
11990;SDS011;6055;52.522;13.446;2022-07-29T01:29:27;4.18;;;2.95;;
11990;SDS011;6055;52.522;13.446;2022-07-29T01:31:56;4.65;;;2.55;;
11990;SDS011;6055;52.522;13.446;2022-07-29T01:34:27;3.65;;;2.40;;
11990;SDS011;6055;52.522;13.446;2022-07-29T01:37:04;4.28;;;2.42;;
11990;SDS011;6055;52.522;13.446;2022-07-29T01:39:32;5.47;;;2.60;;
11990;SDS011;6055;52.522;13.446;2022-07-29T01:42:02;4.13;;;2.38;;
11990;SDS011;6055;52.522;13.446;2022-07-29T01:44:41;3.53;;;2.60;;
11990;SDS011;6055;52.522;13.446;2022-07-29T01:47:15;7.65;;;3.00;;
11990;SDS011;6055;52.522;13.446;2022-07-29T01:49:46;4.45;;;2.25;;
11990;SDS011;6055;52.522;13.446;2022-07-29T01:52:19;4.93;;;3.13;;
11990;SDS011;6055;52.522;13.446;2022-07-29T01:54:50;4.53;;;2.78;;
11990;SDS011;6055;52.522;13.446;2022-07-29T01:57:19;6.18;;;3.13;;
11990;SDS011;6055;52.522;13.446;2022-07-29T01:59:48;4.88;;;2.97;;
11990;SDS011;6055;52.522;13.446;2022-07-29T02:02:16;5.15;;;2.60;;
11990;SDS011;6055;52.522;13.446;2022-07-29T02:04:43;4.57;;;2.65;;
11990;SDS011;6055;52.522;13.446;2022-07-29T02:07:13;5.15;;;2.75;;
11990;SDS011;6055;52.522;13.446;2022-07-29T02:09:43;4.82;;;2.80;;
11990;SDS011;6055;52.522;13.446;2022-07-29T02:12:10;4.93;;;3.25;;
11990;SDS011;6055;52.522;13.446;2022-07-29T02:14:39;5.35;;;2.88;;
11990;SDS011;6055;52.522;13.446;2022-07-29T02:17:08;5.88;;;3.00;;
11990;SDS011;6055;52.522;13.446;2022-07-29T02:19:35;5.95;;;2.55;;
11990;SDS011;6055;52.522;13.446;2022-07-29T02:22:03;3.88;;;2.60;;
11990;SDS011;6055;52.522;13.446;2022-07-29T02:24:31;3.95;;;2.60;;
11990;SDS011;6055;52.522;13.446;2022-07-29T02:26:58;4.45;;;2.30;;
11990;SDS011;6055;52.522;13.446;2022-07-29T02:29:26;3.80;;;2.50;;
11990;SDS011;6055;52.522;13.446;2022-07-29T02:31:53;3.33;;;2.28;;
11990;SDS011;6055;52.522;13.446;2022-07-29T02:34:20;3.20;;;2.25;;
11990;SDS011;6055;52.522;13.446;2022-07-29T02:36:48;3.67;;;2.75;;
11990;SDS011;6055;52.522;13.446;2022-07-29T02:39:14;2.88;;;2.55;;
11990;SDS011;6055;52.522;13.446;2022-07-29T02:44:10;4.75;;;2.35;;
11990;SDS011;6055;52.522;13.446;2022-07-29T02:46:39;3.40;;;2.75;;
11990;SDS011;6055;52.522;13.446;2022-07-29T02:49:12;7.00;;;2.45;;
11990;SDS011;6055;52.522;13.446;2022-07-29T02:52:00;3.85;;;2.05;;
11990;SDS011;6055;52.522;13.446;2022-07-29T02:54:33;3.30;;;2.70;;
11990;SDS011;6055;52.522;13.446;2022-07-29T02:57:22;2.35;;;2.10;;
11990;SDS011;6055;52.522;13.446;2022-07-29T02:59:57;7.63;;;2.45;;
11990;SDS011;6055;52.522;13.446;2022-07-29T03:02:25;3.33;;;2.35;;
11990;SDS011;6055;52.522;13.446;2022-07-29T03:04:51;3.70;;;2.63;;
11990;SDS011;6055;52.522;13.446;2022-07-29T03:07:19;3.22;;;2.10;;
11990;SDS011;6055;52.522;13.446;2022-07-29T03:09:45;4.93;;;2.17;;
11990;SDS011;6055;52.522;13.446;2022-07-29T03:12:12;2.88;;;2.40;;
11990;SDS011;6055;52.522;13.446;2022-07-29T03:14:38;4.10;;;2.20;;
11990;SDS011;6055;52.522;13.446;2022-07-29T03:17:04;3.60;;;2.20;;
11990;SDS011;6055;52.522;13.446;2022-07-29T03:19:30;3.92;;;2.75;;
11990;SDS011;6055;52.522;13.446;2022-07-29T03:21:57;5.25;;;2.53;;
11990;SDS011;6055;52.522;13.446;2022-07-29T03:24:24;3.00;;;2.33;;
11990;SDS011;6055;52.522;13.446;2022-07-29T03:26:57;3.95;;;2.08;;
11990;SDS011;6055;52.522;13.446;2022-07-29T03:29:24;3.28;;;2.22;;
11990;SDS011;6055;52.522;13.446;2022-07-29T03:31:50;6.15;;;2.17;;
11990;SDS011;6055;52.522;13.446;2022-07-29T03:34:15;3.75;;;2.58;;
11990;SDS011;6055;52.522;13.446;2022-07-29T03:36:41;3.30;;;2.22;;
11990;SDS011;6055;52.522;13.446;2022-07-29T03:39:06;2.72;;;2.30;;
11990;SDS011;6055;52.522;13.446;2022-07-29T03:41:33;3.58;;;2.20;;
11990;SDS011;6055;52.522;13.446;2022-07-29T03:44:03;3.47;;;2.90;;
11990;SDS011;6055;52.522;13.446;2022-07-29T03:46:32;2.33;;;2.10;;
11990;SDS011;6055;52.522;13.446;2022-07-29T03:49:03;4.03;;;2.70;;
11990;SDS011;6055;52.522;13.446;2022-07-29T03:51:29;4.82;;;2.38;;
11990;SDS011;6055;52.522;13.446;2022-07-29T03:53:55;3.92;;;2.50;;
11990;SDS011;6055;52.522;13.446;2022-07-29T03:56:21;4.57;;;2.63;;
11990;SDS011;6055;52.522;13.446;2022-07-29T03:58:51;4.72;;;2.47;;
11990;SDS011;6055;52.522;13.446;2022-07-29T04:01:17;3.90;;;2.30;;
11990;SDS011;6055;52.522;13.446;2022-07-29T04:03:44;4.50;;;2.85;;
11990;SDS011;6055;52.522;13.446;2022-07-29T04:06:10;4.50;;;2.60;;
11990;SDS011;6055;52.522;13.446;2022-07-29T04:08:36;2.85;;;2.25;;
11990;SDS011;6055;52.522;13.446;2022-07-29T04:11:02;4.43;;;2.75;;
11990;SDS011;6055;52.522;13.446;2022-07-29T04:13:29;5.03;;;2.42;;
11990;SDS011;6055;52.522;13.446;2022-07-29T04:15:55;4.68;;;1.92;;
11990;SDS011;6055;52.522;13.446;2022-07-29T04:18:21;3.10;;;2.38;;
11990;SDS011;6055;52.522;13.446;2022-07-29T04:20:47;3.42;;;2.22;;
11990;SDS011;6055;52.522;13.446;2022-07-29T04:23:12;4.32;;;2.50;;
11990;SDS011;6055;52.522;13.446;2022-07-29T04:25:38;4.65;;;3.33;;
11990;SDS011;6055;52.522;13.446;2022-07-29T04:28:05;4.15;;;2.65;;
11990;SDS011;6055;52.522;13.446;2022-07-29T04:30:31;5.85;;;2.47;;
11990;SDS011;6055;52.522;13.446;2022-07-29T04:32:59;3.78;;;2.40;;
11990;SDS011;6055;52.522;13.446;2022-07-29T04:35:25;4.13;;;2.55;;
11990;SDS011;6055;52.522;13.446;2022-07-29T04:37:51;4.28;;;2.72;;
11990;SDS011;6055;52.522;13.446;2022-07-29T04:40:17;3.38;;;2.38;;
11990;SDS011;6055;52.522;13.446;2022-07-29T04:42:43;4.75;;;2.60;;
11990;SDS011;6055;52.522;13.446;2022-07-29T04:45:08;4.63;;;2.83;;
11990;SDS011;6055;52.522;13.446;2022-07-29T04:47:34;2.85;;;2.65;;
11990;SDS011;6055;52.522;13.446;2022-07-29T04:50:00;4.70;;;2.92;;
11990;SDS011;6055;52.522;13.446;2022-07-29T04:52:25;3.33;;;2.40;;
11990;SDS011;6055;52.522;13.446;2022-07-29T04:54:51;5.13;;;2.65;;
11990;SDS011;6055;52.522;13.446;2022-07-29T04:57:16;4.28;;;2.47;;
11990;SDS011;6055;52.522;13.446;2022-07-29T04:59:42;3.63;;;2.67;;
11990;SDS011;6055;52.522;13.446;2022-07-29T05:02:08;2.30;;;1.90;;
11990;SDS011;6055;52.522;13.446;2022-07-29T05:04:34;4.78;;;2.30;;
11990;SDS011;6055;52.522;13.446;2022-07-29T05:06:59;2.97;;;2.30;;
11990;SDS011;6055;52.522;13.446;2022-07-29T05:09:25;2.47;;;2.20;;
11990;SDS011;6055;52.522;13.446;2022-07-29T05:11:50;2.58;;;2.38;;
11990;SDS011;6055;52.522;13.446;2022-07-29T05:14:15;4.10;;;2.58;;
11990;SDS011;6055;52.522;13.446;2022-07-29T05:16:41;6.85;;;2.78;;
11990;SDS011;6055;52.522;13.446;2022-07-29T05:19:07;6.05;;;2.67;;
11990;SDS011;6055;52.522;13.446;2022-07-29T05:21:33;3.97;;;2.65;;
11990;SDS011;6055;52.522;13.446;2022-07-29T05:23:58;3.33;;;2.38;;
11990;SDS011;6055;52.522;13.446;2022-07-29T05:26:23;6.05;;;2.20;;
11990;SDS011;6055;52.522;13.446;2022-07-29T05:28:49;4.85;;;2.28;;
11990;SDS011;6055;52.522;13.446;2022-07-29T05:31:14;3.92;;;2.42;;
11990;SDS011;6055;52.522;13.446;2022-07-29T05:33:40;3.03;;;2.25;;
11990;SDS011;6055;52.522;13.446;2022-07-29T05:36:07;7.05;;;2.42;;
11990;SDS011;6055;52.522;13.446;2022-07-29T05:38:33;3.05;;;2.33;;
11990;SDS011;6055;52.522;13.446;2022-07-29T05:40:59;4.32;;;2.20;;
11990;SDS011;6055;52.522;13.446;2022-07-29T05:43:25;5.05;;;2.40;;
11990;SDS011;6055;52.522;13.446;2022-07-29T05:45:53;3.40;;;2.20;;
11990;SDS011;6055;52.522;13.446;2022-07-29T05:48:19;3.08;;;2.20;;
11990;SDS011;6055;52.522;13.446;2022-07-29T05:50:44;2.60;;;2.30;;
11990;SDS011;6055;52.522;13.446;2022-07-29T05:53:10;6.20;;;2.90;;
11990;SDS011;6055;52.522;13.446;2022-07-29T05:55:35;8.05;;;2.85;;
11990;SDS011;6055;52.522;13.446;2022-07-29T05:58:01;4.05;;;2.65;;
11990;SDS011;6055;52.522;13.446;2022-07-29T06:00:27;4.68;;;2.20;;
11990;SDS011;6055;52.522;13.446;2022-07-29T06:02:52;3.45;;;2.33;;
11990;SDS011;6055;52.522;13.446;2022-07-29T06:05:18;4.13;;;2.35;;
11990;SDS011;6055;52.522;13.446;2022-07-29T06:07:43;4.35;;;2.50;;
11990;SDS011;6055;52.522;13.446;2022-07-29T06:10:09;5.18;;;2.60;;
11990;SDS011;6055;52.522;13.446;2022-07-29T06:12:35;4.28;;;2.70;;
11990;SDS011;6055;52.522;13.446;2022-07-29T06:15:01;4.00;;;2.55;;
11990;SDS011;6055;52.522;13.446;2022-07-29T06:17:26;5.88;;;2.38;;
11990;SDS011;6055;52.522;13.446;2022-07-29T06:19:52;3.28;;;2.30;;
11990;SDS011;6055;52.522;13.446;2022-07-29T06:22:18;3.42;;;2.33;;
11990;SDS011;6055;52.522;13.446;2022-07-29T06:24:43;5.00;;;2.00;;
11990;SDS011;6055;52.522;13.446;2022-07-29T06:27:09;6.45;;;2.40;;
11990;SDS011;6055;52.522;13.446;2022-07-29T06:29:35;3.75;;;2.15;;
11990;SDS011;6055;52.522;13.446;2022-07-29T06:32:01;3.08;;;2.10;;
11990;SDS011;6055;52.522;13.446;2022-07-29T06:34:27;5.68;;;2.40;;
11990;SDS011;6055;52.522;13.446;2022-07-29T06:36:52;4.85;;;2.72;;
11990;SDS011;6055;52.522;13.446;2022-07-29T06:39:18;3.30;;;2.13;;
11990;SDS011;6055;52.522;13.446;2022-07-29T06:41:46;4.72;;;2.20;;
11990;SDS011;6055;52.522;13.446;2022-07-29T06:44:13;2.65;;;2.17;;
11990;SDS011;6055;52.522;13.446;2022-07-29T06:46:39;2.60;;;2.00;;
11990;SDS011;6055;52.522;13.446;2022-07-29T06:49:04;2.45;;;2.00;;
11990;SDS011;6055;52.522;13.446;2022-07-29T06:51:30;5.45;;;1.92;;
11990;SDS011;6055;52.522;13.446;2022-07-29T06:53:56;3.47;;;2.10;;
11990;SDS011;6055;52.522;13.446;2022-07-29T06:56:22;4.10;;;2.08;;
11990;SDS011;6055;52.522;13.446;2022-07-29T06:58:48;3.22;;;2.33;;
11990;SDS011;6055;52.522;13.446;2022-07-29T07:01:13;4.97;;;2.17;;
11990;SDS011;6055;52.522;13.446;2022-07-29T07:03:39;4.13;;;2.22;;
11990;SDS011;6055;52.522;13.446;2022-07-29T07:06:04;6.40;;;2.30;;
11990;SDS011;6055;52.522;13.446;2022-07-29T07:08:30;2.63;;;1.98;;
11990;SDS011;6055;52.522;13.446;2022-07-29T07:10:55;3.28;;;2.00;;
11990;SDS011;6055;52.522;13.446;2022-07-29T07:13:21;2.75;;;1.73;;
11990;SDS011;6055;52.522;13.446;2022-07-29T07:15:47;2.30;;;2.00;;
11990;SDS011;6055;52.522;13.446;2022-07-29T07:18:13;4.43;;;1.95;;
11990;SDS011;6055;52.522;13.446;2022-07-29T07:20:39;3.67;;;1.83;;
11990;SDS011;6055;52.522;13.446;2022-07-29T07:23:05;3.95;;;2.08;;
11990;SDS011;6055;52.522;13.446;2022-07-29T07:25:31;3.75;;;2.05;;
11990;SDS011;6055;52.522;13.446;2022-07-29T07:27:57;4.03;;;2.22;;
11990;SDS011;6055;52.522;13.446;2022-07-29T07:30:22;4.28;;;2.00;;
11990;SDS011;6055;52.522;13.446;2022-07-29T07:32:47;3.00;;;2.00;;
11990;SDS011;6055;52.522;13.446;2022-07-29T07:35:13;5.00;;;1.95;;
11990;SDS011;6055;52.522;13.446;2022-07-29T07:37:39;3.33;;;1.85;;
11990;SDS011;6055;52.522;13.446;2022-07-29T07:40:05;3.58;;;1.90;;
11990;SDS011;6055;52.522;13.446;2022-07-29T07:42:31;3.78;;;1.98;;
11990;SDS011;6055;52.522;13.446;2022-07-29T07:44:57;3.53;;;2.15;;
11990;SDS011;6055;52.522;13.446;2022-07-29T07:47:22;3.70;;;1.92;;
11990;SDS011;6055;52.522;13.446;2022-07-29T07:49:49;4.38;;;1.75;;
11990;SDS011;6055;52.522;13.446;2022-07-29T07:52:16;2.85;;;1.90;;
11990;SDS011;6055;52.522;13.446;2022-07-29T07:54:43;2.90;;;1.92;;
11990;SDS011;6055;52.522;13.446;2022-07-29T07:57:09;4.80;;;2.10;;
11990;SDS011;6055;52.522;13.446;2022-07-29T07:59:35;3.13;;;1.80;;
11990;SDS011;6055;52.522;13.446;2022-07-29T08:02:01;2.08;;;1.70;;
11990;SDS011;6055;52.522;13.446;2022-07-29T08:04:27;3.95;;;1.80;;
11990;SDS011;6055;52.522;13.446;2022-07-29T08:06:52;4.75;;;1.80;;
11990;SDS011;6055;52.522;13.446;2022-07-29T08:09:19;2.83;;;1.70;;
11990;SDS011;6055;52.522;13.446;2022-07-29T08:11:45;2.88;;;1.65;;
11990;SDS011;6055;52.522;13.446;2022-07-29T08:14:11;2.13;;;1.70;;
11990;SDS011;6055;52.522;13.446;2022-07-29T08:16:36;4.28;;;2.00;;
11990;SDS011;6055;52.522;13.446;2022-07-29T08:19:02;5.63;;;1.90;;
11990;SDS011;6055;52.522;13.446;2022-07-29T08:21:27;3.33;;;1.75;;
11990;SDS011;6055;52.522;13.446;2022-07-29T08:23:53;3.17;;;1.65;;
11990;SDS011;6055;52.522;13.446;2022-07-29T08:26:38;1.65;;;1.42;;
11990;SDS011;6055;52.522;13.446;2022-07-29T08:29:04;4.78;;;1.77;;
11990;SDS011;6055;52.522;13.446;2022-07-29T08:31:30;2.85;;;1.60;;
11990;SDS011;6055;52.522;13.446;2022-07-29T08:33:55;3.60;;;1.90;;
11990;SDS011;6055;52.522;13.446;2022-07-29T08:36:21;2.03;;;1.60;;
11990;SDS011;6055;52.522;13.446;2022-07-29T08:38:46;4.20;;;1.80;;
11990;SDS011;6055;52.522;13.446;2022-07-29T08:41:14;3.33;;;1.80;;
11990;SDS011;6055;52.522;13.446;2022-07-29T08:43:40;3.20;;;1.80;;
11990;SDS011;6055;52.522;13.446;2022-07-29T08:46:05;1.92;;;1.73;;
11990;SDS011;6055;52.522;13.446;2022-07-29T08:48:31;2.22;;;1.65;;
11990;SDS011;6055;52.522;13.446;2022-07-29T08:50:58;3.00;;;1.83;;
11990;SDS011;6055;52.522;13.446;2022-07-29T08:53:25;3.08;;;1.70;;
11990;SDS011;6055;52.522;13.446;2022-07-29T08:55:52;2.55;;;1.65;;
11990;SDS011;6055;52.522;13.446;2022-07-29T08:58:18;3.38;;;1.73;;
11990;SDS011;6055;52.522;13.446;2022-07-29T09:00:45;3.83;;;1.83;;
11990;SDS011;6055;52.522;13.446;2022-07-29T09:03:17;2.58;;;1.77;;
11990;SDS011;6055;52.522;13.446;2022-07-29T09:05:47;3.75;;;1.70;;
11990;SDS011;6055;52.522;13.446;2022-07-29T09:08:13;2.03;;;1.70;;
11990;SDS011;6055;52.522;13.446;2022-07-29T09:10:40;1.90;;;1.70;;
11990;SDS011;6055;52.522;13.446;2022-07-29T09:13:05;2.70;;;1.60;;
11990;SDS011;6055;52.522;13.446;2022-07-29T09:15:31;1.92;;;1.48;;
11990;SDS011;6055;52.522;13.446;2022-07-29T09:17:56;3.35;;;1.75;;
11990;SDS011;6055;52.522;13.446;2022-07-29T09:20:23;1.88;;;1.65;;
11990;SDS011;6055;52.522;13.446;2022-07-29T09:22:50;1.55;;;1.40;;
11990;SDS011;6055;52.522;13.446;2022-07-29T09:25:32;3.55;;;2.00;;
11990;SDS011;6055;52.522;13.446;2022-07-29T09:28:05;3.45;;;1.90;;
11990;SDS011;6055;52.522;13.446;2022-07-29T09:30:31;3.42;;;2.28;;
11990;SDS011;6055;52.522;13.446;2022-07-29T09:32:57;2.40;;;1.77;;
11990;SDS011;6055;52.522;13.446;2022-07-29T09:35:28;2.63;;;1.83;;
11990;SDS011;6055;52.522;13.446;2022-07-29T09:37:55;2.30;;;1.80;;
11990;SDS011;6055;52.522;13.446;2022-07-29T09:40:23;4.78;;;1.98;;
11990;SDS011;6055;52.522;13.446;2022-07-29T09:42:50;2.70;;;1.60;;
11990;SDS011;6055;52.522;13.446;2022-07-29T09:45:30;2.65;;;1.88;;
11990;SDS011;6055;52.522;13.446;2022-07-29T09:47:57;4.40;;;1.70;;
11990;SDS011;6055;52.522;13.446;2022-07-29T09:50:34;6.53;;;2.00;;
11990;SDS011;6055;52.522;13.446;2022-07-29T09:53:15;3.08;;;1.35;;
11990;SDS011;6055;52.522;13.446;2022-07-29T09:55:54;1.90;;;1.70;;
11990;SDS011;6055;52.522;13.446;2022-07-29T09:58:20;1.83;;;1.40;;
11990;SDS011;6055;52.522;13.446;2022-07-29T10:00:47;1.77;;;1.52;;
11990;SDS011;6055;52.522;13.446;2022-07-29T10:03:15;2.80;;;1.92;;
11990;SDS011;6055;52.522;13.446;2022-07-29T10:05:41;1.75;;;1.42;;
11990;SDS011;6055;52.522;13.446;2022-07-29T10:08:09;3.90;;;2.17;;
11990;SDS011;6055;52.522;13.446;2022-07-29T10:10:38;2.40;;;1.50;;
11990;SDS011;6055;52.522;13.446;2022-07-29T10:13:09;1.98;;;1.75;;
11990;SDS011;6055;52.522;13.446;2022-07-29T10:15:37;3.67;;;1.35;;
11990;SDS011;6055;52.522;13.446;2022-07-29T10:18:08;2.67;;;1.48;;
11990;SDS011;6055;52.522;13.446;2022-07-29T10:20:35;2.08;;;1.45;;
11990;SDS011;6055;52.522;13.446;2022-07-29T10:23:00;2.70;;;1.60;;
11990;SDS011;6055;52.522;13.446;2022-07-29T10:25:26;2.17;;;1.35;;
11990;SDS011;6055;52.522;13.446;2022-07-29T10:27:52;4.03;;;1.42;;
11990;SDS011;6055;52.522;13.446;2022-07-29T10:30:19;2.33;;;1.45;;
11990;SDS011;6055;52.522;13.446;2022-07-29T10:32:49;3.97;;;1.70;;
11990;SDS011;6055;52.522;13.446;2022-07-29T10:44:08;1.70;;;1.38;;
11990;SDS011;6055;52.522;13.446;2022-07-29T10:46:39;2.97;;;1.55;;
11990;SDS011;6055;52.522;13.446;2022-07-29T10:49:06;2.25;;;1.20;;
11990;SDS011;6055;52.522;13.446;2022-07-29T11:05:04;1.35;;;1.20;;
11990;SDS011;6055;52.522;13.446;2022-07-29T11:07:31;3.95;;;2.15;;
11990;SDS011;6055;52.522;13.446;2022-07-29T11:15:11;4.00;;;1.67;;
11990;SDS011;6055;52.522;13.446;2022-07-29T11:20:31;1.80;;;1.45;;
11990;SDS011;6055;52.522;13.446;2022-07-29T11:28:59;3.15;;;1.67;;
11990;SDS011;6055;52.522;13.446;2022-07-29T11:47:27;5.55;;;1.92;;
11990;SDS011;6055;52.522;13.446;2022-07-29T11:49:55;2.42;;;1.40;;
11990;SDS011;6055;52.522;13.446;2022-07-29T11:52:22;2.70;;;2.00;;
11990;SDS011;6055;52.522;13.446;2022-07-29T11:54:48;3.00;;;1.75;;
11990;SDS011;6055;52.522;13.446;2022-07-29T11:57:18;3.75;;;1.38;;
11990;SDS011;6055;52.522;13.446;2022-07-29T11:59:45;3.35;;;1.63;;
11990;SDS011;6055;52.522;13.446;2022-07-29T12:02:12;3.05;;;1.92;;
11990;SDS011;6055;52.522;13.446;2022-07-29T12:04:51;3.30;;;1.65;;
11990;SDS011;6055;52.522;13.446;2022-07-29T12:07:28;3.17;;;1.73;;
11990;SDS011;6055;52.522;13.446;2022-07-29T12:09:54;2.13;;;1.77;;
11990;SDS011;6055;52.522;13.446;2022-07-29T12:12:20;3.22;;;2.10;;
11990;SDS011;6055;52.522;13.446;2022-07-29T12:14:46;3.72;;;1.92;;
11990;SDS011;6055;52.522;13.446;2022-07-29T12:19:54;2.78;;;1.80;;
11990;SDS011;6055;52.522;13.446;2022-07-29T12:22:24;3.47;;;1.83;;
11990;SDS011;6055;52.522;13.446;2022-07-29T12:24:54;3.72;;;2.40;;
11990;SDS011;6055;52.522;13.446;2022-07-29T12:27:21;2.33;;;2.05;;
11990;SDS011;6055;52.522;13.446;2022-07-29T12:30:00;2.45;;;2.08;;
11990;SDS011;6055;52.522;13.446;2022-07-29T12:32:39;3.53;;;2.13;;
11990;SDS011;6055;52.522;13.446;2022-07-29T12:35:07;2.42;;;2.00;;
11990;SDS011;6055;52.522;13.446;2022-07-29T12:37:36;2.33;;;2.03;;
11990;SDS011;6055;52.522;13.446;2022-07-29T12:40:04;2.03;;;1.83;;
11990;SDS011;6055;52.522;13.446;2022-07-29T12:42:32;2.45;;;2.00;;
11990;SDS011;6055;52.522;13.446;2022-07-29T12:44:58;3.35;;;1.90;;
11990;SDS011;6055;52.522;13.446;2022-07-29T12:47:24;2.50;;;1.92;;
11990;SDS011;6055;52.522;13.446;2022-07-29T12:49:50;2.28;;;2.05;;
11990;SDS011;6055;52.522;13.446;2022-07-29T12:52:33;4.15;;;3.28;;
11990;SDS011;6055;52.522;13.446;2022-07-29T12:54:59;3.15;;;2.17;;
11990;SDS011;6055;52.522;13.446;2022-07-29T12:57:25;3.22;;;2.30;;
11990;SDS011;6055;52.522;13.446;2022-07-29T12:59:58;2.63;;;1.83;;
11990;SDS011;6055;52.522;13.446;2022-07-29T13:02:33;2.92;;;2.15;;
11990;SDS011;6055;52.522;13.446;2022-07-29T13:04:59;2.38;;;2.10;;
11990;SDS011;6055;52.522;13.446;2022-07-29T13:07:26;2.35;;;2.10;;
11990;SDS011;6055;52.522;13.446;2022-07-29T13:09:54;2.38;;;2.00;;
11990;SDS011;6055;52.522;13.446;2022-07-29T13:12:34;2.60;;;2.30;;
11990;SDS011;6055;52.522;13.446;2022-07-29T13:14:59;4.05;;;2.30;;
11990;SDS011;6055;52.522;13.446;2022-07-29T13:17:25;3.25;;;2.40;;
11990;SDS011;6055;52.522;13.446;2022-07-29T13:20:07;2.58;;;2.10;;
11990;SDS011;6055;52.522;13.446;2022-07-29T13:22:37;5.10;;;2.40;;
11990;SDS011;6055;52.522;13.446;2022-07-29T13:25:03;4.45;;;2.20;;
11990;SDS011;6055;52.522;13.446;2022-07-29T13:27:32;3.40;;;2.10;;
11990;SDS011;6055;52.522;13.446;2022-07-29T13:30:01;2.53;;;2.17;;
11990;SDS011;6055;52.522;13.446;2022-07-29T13:32:29;3.30;;;2.38;;
11990;SDS011;6055;52.522;13.446;2022-07-29T13:34:56;2.92;;;2.53;;
11990;SDS011;6055;52.522;13.446;2022-07-29T13:37:22;2.30;;;2.10;;
11990;SDS011;6055;52.522;13.446;2022-07-29T13:39:48;2.20;;;2.00;;
11990;SDS011;6055;52.522;13.446;2022-07-29T13:42:14;4.28;;;2.15;;
11990;SDS011;6055;52.522;13.446;2022-07-29T13:44:40;3.08;;;2.70;;
11990;SDS011;6055;52.522;13.446;2022-07-29T13:47:06;3.30;;;2.70;;
11990;SDS011;6055;52.522;13.446;2022-07-29T13:49:32;3.47;;;2.20;;
11990;SDS011;6055;52.522;13.446;2022-07-29T13:51:58;2.33;;;2.08;;
11990;SDS011;6055;52.522;13.446;2022-07-29T13:54:24;3.85;;;2.38;;
11990;SDS011;6055;52.522;13.446;2022-07-29T13:56:50;2.35;;;2.15;;
11990;SDS011;6055;52.522;13.446;2022-07-29T13:59:16;2.72;;;2.20;;
11990;SDS011;6055;52.522;13.446;2022-07-29T14:01:42;2.80;;;2.50;;
11990;SDS011;6055;52.522;13.446;2022-07-29T14:04:08;3.00;;;2.55;;
11990;SDS011;6055;52.522;13.446;2022-07-29T14:06:34;2.60;;;1.95;;
11990;SDS011;6055;52.522;13.446;2022-07-29T14:09:00;3.05;;;2.40;;
11990;SDS011;6055;52.522;13.446;2022-07-29T14:11:26;2.50;;;2.30;;
11990;SDS011;6055;52.522;13.446;2022-07-29T14:13:51;2.78;;;2.33;;
11990;SDS011;6055;52.522;13.446;2022-07-29T14:16:17;2.92;;;2.25;;
11990;SDS011;6055;52.522;13.446;2022-07-29T14:18:42;2.90;;;2.13;;
11990;SDS011;6055;52.522;13.446;2022-07-29T14:21:08;2.92;;;2.45;;
11990;SDS011;6055;52.522;13.446;2022-07-29T14:23:34;2.47;;;2.25;;
11990;SDS011;6055;52.522;13.446;2022-07-29T14:25:59;3.17;;;2.38;;
11990;SDS011;6055;52.522;13.446;2022-07-29T14:28:25;2.38;;;2.15;;
11990;SDS011;6055;52.522;13.446;2022-07-29T14:30:51;2.97;;;2.50;;
11990;SDS011;6055;52.522;13.446;2022-07-29T14:33:16;2.58;;;2.38;;
11990;SDS011;6055;52.522;13.446;2022-07-29T14:35:42;3.38;;;2.42;;
11990;SDS011;6055;52.522;13.446;2022-07-29T14:38:08;2.60;;;2.40;;
11990;SDS011;6055;52.522;13.446;2022-07-29T14:40:34;3.50;;;2.55;;
11990;SDS011;6055;52.522;13.446;2022-07-29T14:42:59;2.92;;;2.20;;
11990;SDS011;6055;52.522;13.446;2022-07-29T14:45:25;2.58;;;2.30;;
11990;SDS011;6055;52.522;13.446;2022-07-29T14:47:50;3.35;;;2.65;;
11990;SDS011;6055;52.522;13.446;2022-07-29T14:50:16;2.58;;;2.38;;
11990;SDS011;6055;52.522;13.446;2022-07-29T14:52:41;3.17;;;2.45;;
11990;SDS011;6055;52.522;13.446;2022-07-29T14:55:07;3.08;;;2.30;;
11990;SDS011;6055;52.522;13.446;2022-07-29T14:57:33;3.97;;;2.20;;
11990;SDS011;6055;52.522;13.446;2022-07-29T14:59:59;2.35;;;2.15;;
11990;SDS011;6055;52.522;13.446;2022-07-29T15:02:25;3.05;;;2.30;;
11990;SDS011;6055;52.522;13.446;2022-07-29T15:04:50;3.20;;;2.53;;
11990;SDS011;6055;52.522;13.446;2022-07-29T15:07:16;2.78;;;2.30;;
11990;SDS011;6055;52.522;13.446;2022-07-29T15:09:42;2.53;;;2.33;;
11990;SDS011;6055;52.522;13.446;2022-07-29T15:12:07;2.50;;;2.30;;
11990;SDS011;6055;52.522;13.446;2022-07-29T15:14:35;2.58;;;2.35;;
11990;SDS011;6055;52.522;13.446;2022-07-29T15:17:00;2.22;;;1.98;;
11990;SDS011;6055;52.522;13.446;2022-07-29T15:19:26;7.15;;;2.55;;
11990;SDS011;6055;52.522;13.446;2022-07-29T15:21:52;3.65;;;2.42;;
11990;SDS011;6055;52.522;13.446;2022-07-29T15:24:17;4.80;;;2.33;;
11990;SDS011;6055;52.522;13.446;2022-07-29T15:26:43;3.40;;;2.42;;
11990;SDS011;6055;52.522;13.446;2022-07-29T15:29:08;4.78;;;2.53;;
11990;SDS011;6055;52.522;13.446;2022-07-29T15:31:34;2.70;;;2.30;;
11990;SDS011;6055;52.522;13.446;2022-07-29T15:33:59;4.63;;;2.50;;
11990;SDS011;6055;52.522;13.446;2022-07-29T15:36:25;2.47;;;2.25;;
11990;SDS011;6055;52.522;13.446;2022-07-29T15:38:54;2.35;;;2.15;;
11990;SDS011;6055;52.522;13.446;2022-07-29T15:41:20;2.15;;;1.85;;
11990;SDS011;6055;52.522;13.446;2022-07-29T15:43:46;3.80;;;2.00;;
11990;SDS011;6055;52.522;13.446;2022-07-29T15:46:16;2.42;;;2.10;;
11990;SDS011;6055;52.522;13.446;2022-07-29T15:49:02;2.67;;;2.20;;
11990;SDS011;6055;52.522;13.446;2022-07-29T15:51:28;2.20;;;2.00;;
11990;SDS011;6055;52.522;13.446;2022-07-29T15:53:54;2.83;;;2.05;;